createdAt,value
2018-03-11T00:01:16.515Z,4.87
2018-03-11T00:03:52.541Z,5.30
2018-03-11T00:06:22.382Z,5.60
2018-03-11T00:08:51.915Z,5.10
2018-03-11T00:11:21.480Z,4.97
2018-03-11T00:14:04.299Z,5.00
2018-03-11T00:16:34.016Z,5.40
2018-03-11T00:19:05.239Z,5.10
2018-03-11T00:21:35.490Z,5.10
2018-03-11T00:24:08.068Z,4.10
2018-03-11T00:26:37.643Z,5.07
2018-03-11T00:29:07.207Z,5.77
2018-03-11T00:31:36.809Z,5.03
2018-03-11T00:34:06.395Z,4.90
2018-03-11T00:36:35.959Z,4.30
2018-03-11T00:39:05.572Z,5.53
2018-03-11T00:41:35.140Z,4.80
2018-03-11T00:44:04.710Z,5.47
2018-03-11T00:46:34.338Z,4.57
2018-03-11T00:49:11.193Z,4.47
2018-03-11T00:51:40.838Z,4.83
2018-03-11T00:54:11.051Z,5.30
2018-03-11T00:56:40.591Z,6.23
2018-03-11T00:59:10.138Z,5.30
2018-03-11T01:01:39.835Z,5.80
2018-03-11T01:04:09.416Z,5.53
2018-03-11T01:06:39.038Z,5.50
2018-03-11T01:09:08.655Z,5.70
2018-03-11T01:11:38.693Z,5.33
2018-03-11T01:14:08.284Z,6.00
2018-03-11T01:16:38.242Z,5.50
2018-03-11T01:19:07.842Z,6.23
2018-03-11T01:21:37.485Z,5.63
2018-03-11T01:24:07.369Z,4.63
2018-03-11T01:26:36.932Z,5.20
2018-03-11T01:29:06.512Z,5.57
2018-03-11T01:31:43.057Z,6.73
2018-03-11T01:34:13.618Z,6.07
2018-03-11T01:36:57.494Z,5.67
2018-03-11T01:39:27.108Z,5.20
2018-03-11T01:41:56.776Z,5.57
2018-03-11T01:44:26.378Z,6.70
2018-03-11T01:47:09.444Z,7.20
2018-03-11T01:49:39.116Z,6.77
2018-03-11T01:52:15.384Z,6.60
2018-03-11T01:54:44.935Z,6.60
2018-03-11T01:57:14.873Z,7.50
2018-03-11T01:59:50.589Z,7.30
2018-03-11T02:02:20.857Z,7.40
2018-03-11T02:04:50.422Z,6.60
2018-03-11T02:07:20.037Z,8.30
2018-03-11T02:09:49.631Z,6.93
2018-03-11T02:12:22.708Z,6.83
2018-03-11T02:14:52.292Z,8.33
2018-03-11T02:17:21.918Z,8.07
2018-03-11T02:19:51.475Z,7.70
2018-03-11T02:22:27.953Z,7.20
2018-03-11T02:24:57.729Z,7.10
2018-03-11T02:27:27.265Z,7.77
2018-03-11T02:29:56.901Z,7.50
2018-03-11T02:32:26.651Z,8.53
2018-03-11T02:34:58.070Z,8.07
2018-03-11T02:37:27.663Z,9.00
2018-03-11T02:39:57.284Z,9.27
2018-03-11T02:42:33.218Z,8.30
2018-03-11T02:45:03.039Z,7.87
2018-03-11T02:47:32.640Z,8.60
2018-03-11T02:50:02.242Z,7.73
2018-03-11T02:52:32.080Z,8.63
2018-03-11T02:55:01.670Z,7.17
2018-03-11T02:57:31.225Z,7.60
2018-03-11T03:00:01.327Z,9.90
2018-03-11T03:02:31.087Z,7.90
2018-03-11T03:05:01.063Z,7.73
2018-03-11T03:07:30.638Z,8.33
2018-03-11T03:10:00.220Z,6.07
2018-03-11T03:12:29.843Z,7.37
2018-03-11T03:14:59.429Z,7.60
2018-03-11T03:17:29.020Z,8.57
2018-03-11T03:19:58.615Z,8.17
2018-03-11T03:22:28.526Z,7.80
2018-03-11T03:24:58.140Z,7.67
2018-03-11T03:27:34.433Z,6.80
2018-03-11T03:30:04.095Z,6.53
2018-03-11T03:32:33.785Z,6.73
2018-03-11T03:35:03.815Z,7.43
2018-03-11T03:37:50.365Z,7.53
2018-03-11T03:40:19.940Z,6.60
2018-03-11T03:42:49.559Z,6.80
2018-03-11T03:45:19.293Z,6.07
2018-03-11T03:47:48.832Z,6.20
2018-03-11T03:50:18.828Z,6.63
2018-03-11T03:52:48.522Z,7.10
2018-03-11T03:55:18.355Z,6.50
2018-03-11T03:57:47.954Z,6.70
2018-03-11T04:00:23.096Z,6.83
2018-03-11T04:02:53.130Z,7.20
2018-03-11T04:05:22.958Z,7.90
2018-03-11T04:07:52.539Z,7.80
2018-03-11T04:10:22.413Z,8.10
2018-03-11T04:12:52.424Z,7.70
2018-03-11T04:15:27.869Z,6.70
2018-03-11T04:17:57.445Z,6.87
2018-03-11T04:20:29.193Z,7.37
2018-03-11T04:23:00.061Z,6.17
2018-03-11T04:25:30.469Z,5.80
2018-03-11T04:28:00.036Z,6.50
2018-03-11T04:30:29.584Z,6.00
2018-03-11T04:33:00.981Z,6.10
2018-03-11T04:35:30.846Z,6.57
2018-03-11T04:38:00.448Z,6.30
2018-03-11T04:40:30.257Z,6.10
2018-03-11T04:43:00.100Z,6.73
2018-03-11T04:45:31.172Z,7.07
2018-03-11T04:48:00.777Z,6.73
2018-03-11T04:50:30.379Z,6.53
2018-03-11T04:53:00.245Z,6.80
2018-03-11T04:55:29.813Z,6.20
2018-03-11T04:58:13.068Z,6.70
2018-03-11T05:00:42.698Z,6.30
2018-03-11T05:03:12.472Z,6.43
2018-03-11T05:05:42.036Z,7.17
2018-03-11T05:08:11.656Z,6.20
2018-03-11T05:10:41.284Z,5.53
2018-03-11T05:13:10.851Z,6.67
2018-03-11T05:15:40.575Z,5.83
2018-03-11T05:18:10.104Z,5.87
2018-03-11T05:20:46.234Z,5.97
2018-03-11T05:23:15.836Z,5.87
2018-03-11T05:25:45.420Z,5.50
2018-03-11T05:28:14.990Z,5.37
2018-03-11T05:30:44.634Z,5.47
2018-03-11T05:33:30.932Z,6.30
2018-03-11T05:36:00.506Z,5.90
2018-03-11T05:38:30.042Z,5.67
2018-03-11T05:40:59.542Z,5.90
2018-03-11T05:43:29.112Z,5.53
2018-03-11T05:46:05.943Z,7.20
2018-03-11T05:48:35.491Z,6.80
2018-03-11T05:51:05.020Z,6.20
2018-03-11T05:53:42.385Z,6.20
2018-03-11T05:56:11.915Z,6.50
2018-03-11T05:58:41.435Z,7.80
2018-03-11T06:01:10.985Z,6.40
2018-03-11T06:03:40.526Z,7.90
2018-03-11T06:06:10.092Z,7.87
2018-03-11T06:08:52.929Z,7.80
2018-03-11T06:11:22.683Z,7.47
2018-03-11T06:14:05.438Z,7.50
2018-03-11T06:16:40.950Z,8.33
2018-03-11T06:19:10.548Z,6.80
2018-03-11T06:21:40.074Z,7.27
2018-03-11T06:24:09.889Z,6.80
2018-03-11T06:26:43.184Z,6.73
2018-03-11T06:29:12.719Z,7.20
2018-03-11T06:31:42.263Z,6.20
2018-03-11T06:34:19.574Z,6.70
2018-03-11T06:36:49.146Z,6.20
2018-03-11T06:39:18.755Z,6.73
2018-03-11T06:41:48.366Z,6.67
2018-03-11T06:44:17.914Z,6.30
2018-03-11T06:46:47.441Z,5.50
2018-03-11T06:49:16.935Z,5.77
2018-03-11T06:51:46.479Z,4.80
2018-03-11T06:54:16.011Z,5.13
2018-03-11T06:56:46.249Z,4.83
2018-03-11T06:59:23.418Z,5.37
2018-03-11T07:01:52.909Z,5.53
2018-03-11T07:04:22.472Z,5.03
2018-03-11T07:06:51.970Z,4.27
2018-03-11T07:09:27.499Z,5.10
2018-03-11T07:12:10.192Z,4.43
2018-03-11T07:14:39.906Z,5.17
2018-03-11T07:17:09.480Z,5.27
2018-03-11T07:19:39.087Z,5.00
2018-03-11T07:22:20.882Z,4.80
2018-03-11T07:24:50.435Z,5.70
2018-03-11T07:27:20.013Z,5.53
2018-03-11T07:29:49.574Z,6.10
2018-03-11T07:32:19.081Z,5.60
2018-03-11T07:34:48.635Z,5.23
2018-03-11T07:37:31.925Z,5.53
2018-03-11T07:40:01.487Z,5.97
2018-03-11T07:42:31.047Z,6.90
2018-03-11T07:45:00.587Z,5.93
2018-03-11T07:47:30.476Z,6.23
2018-03-11T07:50:00.045Z,6.03
2018-03-11T07:52:29.599Z,11.27
2018-03-11T07:54:59.473Z,10.03
2018-03-11T07:57:28.995Z,9.73
2018-03-11T07:59:58.539Z,9.47
2018-03-11T08:02:28.055Z,9.20
2018-03-11T08:04:57.590Z,7.70
2018-03-11T08:07:27.109Z,9.37
2018-03-11T08:09:56.628Z,8.53
2018-03-11T08:12:27.114Z,11.60
2018-03-11T08:15:11.756Z,11.73
2018-03-11T08:17:41.271Z,9.80
2018-03-11T08:20:10.790Z,10.90
2018-03-11T08:22:40.350Z,12.47
2018-03-11T08:25:09.919Z,12.90
2018-03-11T08:27:39.493Z,13.20
2018-03-11T08:30:09.992Z,15.37
2018-03-11T08:32:59.006Z,15.60
2018-03-11T08:35:28.566Z,15.27
2018-03-11T08:37:58.100Z,13.73
2018-03-11T08:40:28.089Z,13.63
2018-03-11T08:43:11.925Z,13.73
2018-03-11T08:45:41.689Z,9.40
2018-03-11T08:48:12.123Z,8.20
2018-03-11T08:50:44.222Z,6.70
2018-03-11T08:53:28.110Z,6.27
2018-03-11T08:55:57.818Z,5.90
2018-03-11T08:58:27.360Z,5.87
2018-03-11T09:00:56.869Z,4.83
2018-03-11T09:03:26.583Z,5.70
2018-03-11T09:05:56.116Z,5.87
2018-03-11T09:08:33.354Z,5.80
2018-03-11T09:11:11.039Z,6.80
2018-03-11T09:13:40.595Z,7.17
2018-03-11T09:16:10.129Z,7.30
2018-03-11T09:18:45.713Z,7.93
2018-03-11T09:21:15.318Z,9.07
2018-03-11T09:23:45.048Z,7.57
2018-03-11T09:26:16.027Z,6.93
2018-03-11T09:28:45.921Z,6.63
2018-03-11T09:31:15.873Z,5.43
2018-03-11T09:33:48.918Z,5.70
2018-03-11T09:36:18.733Z,4.70
2018-03-11T09:38:48.338Z,4.77
2018-03-11T09:41:17.875Z,4.63
2018-03-11T09:43:49.615Z,4.97
2018-03-11T09:46:19.121Z,5.40
2018-03-11T09:48:48.898Z,4.60
2018-03-11T09:51:24.582Z,4.53
2018-03-11T09:53:54.862Z,4.90
2018-03-11T09:56:24.356Z,4.60
2018-03-11T09:59:03.636Z,4.13
2018-03-11T10:01:33.162Z,3.83
2018-03-11T10:04:02.738Z,3.80
2018-03-11T10:06:32.301Z,4.73
2018-03-11T10:09:02.146Z,4.57
2018-03-11T10:11:31.874Z,3.10
2018-03-11T10:14:01.418Z,4.40
2018-03-11T10:16:31.042Z,3.80
2018-03-11T10:19:01.358Z,4.40
2018-03-11T10:21:31.125Z,4.10
2018-03-11T10:24:01.001Z,4.03
2018-03-11T10:26:30.535Z,3.07
2018-03-11T10:29:00.062Z,3.40
2018-03-11T10:31:29.561Z,3.57
2018-03-11T10:33:59.075Z,3.80
2018-03-11T10:36:29.203Z,3.43
2018-03-11T10:38:58.768Z,3.83
2018-03-11T10:41:28.653Z,2.67
2018-03-11T10:43:58.302Z,3.10
2018-03-11T10:46:27.830Z,3.30
2018-03-11T10:48:57.472Z,4.00
2018-03-11T10:51:27.020Z,4.20
2018-03-11T10:53:56.687Z,4.57
2018-03-11T10:56:26.206Z,4.20
2018-03-11T10:58:56.014Z,4.20
2018-03-11T11:01:31.412Z,4.70
2018-03-11T11:04:02.800Z,4.20
2018-03-11T11:06:32.358Z,4.50
2018-03-11T11:09:01.890Z,4.67
2018-03-11T11:11:31.839Z,4.10
2018-03-11T11:14:01.456Z,3.57
2018-03-11T11:16:31.037Z,5.83
2018-03-11T11:19:02.071Z,4.23
2018-03-11T11:21:32.055Z,4.80
2018-03-11T11:24:08.975Z,3.57
2018-03-11T11:26:38.526Z,3.83
2018-03-11T11:29:08.039Z,3.77
2018-03-11T11:31:45.314Z,3.40
2018-03-11T11:34:15.419Z,3.80
2018-03-11T11:36:45.150Z,4.20
2018-03-11T11:39:14.675Z,3.30
2018-03-11T11:41:44.206Z,3.23
2018-03-11T11:44:14.078Z,2.80
2018-03-11T11:46:43.706Z,3.60
2018-03-11T11:49:13.347Z,3.23
2018-03-11T11:51:42.862Z,2.90
2018-03-11T11:54:12.423Z,2.77
2018-03-11T11:56:48.809Z,3.07
2018-03-11T11:59:18.394Z,2.17
2018-03-11T12:01:47.947Z,2.73
2018-03-11T12:04:17.460Z,2.23
2018-03-11T12:06:46.976Z,3.00
2018-03-11T12:09:23.340Z,2.10
2018-03-11T12:11:52.891Z,2.37
2018-03-11T12:14:22.406Z,1.93
2018-03-11T12:16:51.906Z,2.03
2018-03-11T12:19:21.510Z,2.00
2018-03-11T12:21:51.063Z,2.10
2018-03-11T12:24:20.597Z,2.43
2018-03-11T12:26:51.175Z,1.90
2018-03-11T12:29:20.748Z,2.40
2018-03-11T12:31:50.311Z,2.00
2018-03-11T12:34:19.837Z,2.10
2018-03-11T12:36:49.368Z,2.00
2018-03-11T12:39:18.914Z,2.30
2018-03-11T12:41:48.448Z,2.10
2018-03-11T12:44:18.010Z,2.40
2018-03-11T12:46:49.090Z,2.17
2018-03-11T12:49:18.645Z,2.27
2018-03-11T12:51:48.211Z,2.43
2018-03-11T12:54:20.049Z,2.23
2018-03-11T12:56:50.924Z,2.43
2018-03-11T12:59:20.479Z,1.77
2018-03-11T13:01:50.007Z,3.10
2018-03-11T13:04:19.507Z,2.80
2018-03-11T13:06:49.275Z,2.70
2018-03-11T13:09:18.835Z,1.70
2018-03-11T13:11:48.431Z,2.67
2018-03-11T13:14:17.951Z,2.40
2018-03-11T13:16:47.469Z,2.70
2018-03-11T13:19:16.978Z,2.77
2018-03-11T13:21:46.575Z,1.83
2018-03-11T13:24:16.309Z,2.30
2018-03-11T13:26:47.667Z,2.10
2018-03-11T13:29:18.150Z,2.80
2018-03-11T13:32:01.043Z,2.87
2018-03-11T13:34:30.600Z,2.47
2018-03-11T13:37:00.235Z,3.00
2018-03-11T13:39:35.670Z,2.33
2018-03-11T13:42:06.774Z,2.60
2018-03-11T13:44:36.341Z,1.73
2018-03-11T13:47:08.691Z,3.30
2018-03-11T13:49:38.395Z,2.27
2018-03-11T13:52:14.153Z,3.10
2018-03-11T13:54:43.742Z,2.60
2018-03-11T13:57:32.875Z,2.60
2018-03-11T14:00:02.394Z,3.30
2018-03-11T14:02:32.322Z,3.20
2018-03-11T14:05:02.186Z,2.60
2018-03-11T14:07:33.630Z,2.53
2018-03-11T14:10:03.236Z,2.40
2018-03-11T14:12:32.832Z,2.40
2018-03-11T14:15:03.411Z,2.53
2018-03-11T14:17:33.667Z,2.70
2018-03-11T14:20:03.229Z,4.07
2018-03-11T14:22:32.709Z,2.60
2018-03-11T14:25:02.240Z,3.63
2018-03-11T14:27:40.431Z,3.43
2018-03-11T14:30:10.122Z,2.50
2018-03-11T14:32:39.820Z,3.17
2018-03-11T14:35:09.620Z,2.53
2018-03-11T14:37:39.166Z,3.43
2018-03-11T14:40:08.758Z,3.17
2018-03-11T14:42:38.325Z,2.67
2018-03-11T14:45:11.782Z,3.50
2018-03-11T14:47:41.348Z,3.40
2018-03-11T14:50:14.538Z,2.83
2018-03-11T14:52:44.736Z,3.60
2018-03-11T14:55:14.667Z,5.47
2018-03-11T14:57:44.231Z,2.53
2018-03-11T15:00:13.892Z,3.67
2018-03-11T15:02:43.500Z,3.58
2018-03-11T15:05:13.052Z,3.60
2018-03-11T15:07:42.634Z,3.12
2018-03-11T15:10:12.190Z,3.78
2018-03-11T15:12:41.926Z,3.83
2018-03-11T15:15:11.430Z,3.70
2018-03-11T15:17:43.943Z,3.40
2018-03-11T15:20:13.526Z,2.92
2018-03-11T15:22:43.228Z,2.78
2018-03-11T15:25:12.742Z,2.90
2018-03-11T15:27:42.254Z,3.78
2018-03-11T15:30:12.050Z,2.60
2018-03-11T15:32:41.587Z,3.27
2018-03-11T15:35:11.137Z,2.50
2018-03-11T15:37:40.682Z,2.43
2018-03-11T15:40:11.233Z,2.93
2018-03-11T15:42:40.910Z,2.80
2018-03-11T15:45:10.482Z,2.70
2018-03-11T15:47:40.029Z,2.23
2018-03-11T15:50:12.659Z,2.93
2018-03-11T15:52:43.577Z,2.60
2018-03-11T15:55:13.087Z,3.03
2018-03-11T15:57:42.621Z,2.90
2018-03-11T16:00:12.123Z,4.07
2018-03-11T16:02:41.650Z,2.70
2018-03-11T16:05:11.151Z,2.53
2018-03-11T16:07:40.755Z,3.17
2018-03-11T16:10:10.279Z,2.70
2018-03-11T16:12:45.897Z,3.17
2018-03-11T16:15:15.434Z,2.83
2018-03-11T16:17:45.088Z,3.10
2018-03-11T16:20:14.674Z,2.77
2018-03-11T16:22:44.577Z,3.40
2018-03-11T16:25:14.106Z,2.80
2018-03-11T16:27:43.631Z,2.70
2018-03-11T16:30:13.167Z,2.87
2018-03-11T16:32:42.678Z,2.60
2018-03-11T16:35:12.207Z,2.57
2018-03-11T16:37:41.701Z,3.17
2018-03-11T16:40:12.768Z,3.30
2018-03-11T16:42:42.395Z,2.77
2018-03-11T16:45:11.926Z,3.57
2018-03-11T16:47:41.453Z,2.03
2018-03-11T16:50:11.907Z,3.13
2018-03-11T16:52:41.469Z,3.73
2018-03-11T16:55:11.022Z,2.50
2018-03-11T16:57:41.278Z,4.40
2018-03-11T17:00:12.349Z,4.90
2018-03-11T17:02:42.170Z,2.80
2018-03-11T17:05:11.804Z,3.40
2018-03-11T17:07:41.350Z,2.43
2018-03-11T17:10:11.109Z,2.57
2018-03-11T17:12:40.962Z,2.30
2018-03-11T17:15:10.523Z,3.00
2018-03-11T17:17:40.040Z,2.40
2018-03-11T17:20:09.618Z,2.40
2018-03-11T17:22:39.290Z,2.60
2018-03-11T17:25:09.302Z,3.60
2018-03-11T17:27:38.855Z,2.47
2018-03-11T17:30:08.418Z,2.30
2018-03-11T17:32:37.908Z,1.87
2018-03-11T17:35:07.444Z,2.53
2018-03-11T17:37:37.823Z,2.80
2018-03-11T17:40:07.366Z,3.10
2018-03-11T17:42:36.882Z,2.67
2018-03-11T17:45:06.391Z,3.37
2018-03-11T17:47:35.943Z,2.53
2018-03-11T17:50:05.495Z,2.80
2018-03-11T17:52:35.017Z,2.20
2018-03-11T17:55:05.459Z,2.10
2018-03-11T17:57:47.528Z,1.77
2018-03-11T18:00:18.131Z,2.10
2018-03-11T18:02:47.683Z,2.20
2018-03-11T18:05:17.235Z,1.90
2018-03-11T18:07:46.755Z,2.07
2018-03-11T18:10:16.274Z,3.40
2018-03-11T18:12:45.910Z,1.90
2018-03-11T18:15:15.437Z,2.13
2018-03-11T18:17:46.340Z,1.53
2018-03-11T18:20:15.926Z,1.90
2018-03-11T18:22:45.496Z,1.70
2018-03-11T18:25:15.038Z,2.20
2018-03-11T18:27:44.554Z,2.00
2018-03-11T18:30:21.886Z,2.30
2018-03-11T18:32:51.439Z,1.97
2018-03-11T18:35:20.943Z,2.23
2018-03-11T18:37:50.568Z,2.47
2018-03-11T18:40:21.270Z,2.87
2018-03-11T18:42:50.833Z,2.10
2018-03-11T18:45:20.424Z,2.00
2018-03-11T18:47:50.208Z,2.70
2018-03-11T18:50:20.080Z,3.07
2018-03-11T18:52:56.570Z,3.60
2018-03-11T18:55:26.179Z,3.03
2018-03-11T18:57:55.758Z,3.50
2018-03-11T19:00:25.370Z,5.00
2018-03-11T19:02:56.398Z,4.10
2018-03-11T19:05:27.023Z,3.83
2018-03-11T19:07:58.240Z,2.53
2018-03-11T19:10:27.845Z,5.07
2018-03-11T19:13:03.554Z,2.70
2018-03-11T19:15:44.085Z,3.20
2018-03-11T19:18:13.670Z,2.80
2018-03-11T19:20:43.256Z,4.27
2018-03-11T19:23:13.059Z,2.80
2018-03-11T19:25:56.409Z,4.47
2018-03-11T19:28:26.801Z,3.67
2018-03-11T19:30:56.658Z,3.77
2018-03-11T19:33:29.324Z,4.17
2018-03-11T19:36:05.010Z,3.23
2018-03-11T19:38:35.034Z,3.07
2018-03-11T19:41:05.873Z,3.63
2018-03-11T19:43:41.544Z,5.00
2018-03-11T19:46:11.433Z,3.73
2018-03-11T19:48:41.826Z,2.97
2018-03-11T19:51:11.432Z,2.90
2018-03-11T19:53:41.247Z,2.77
2018-03-11T19:56:10.869Z,3.47
2018-03-11T19:58:40.512Z,2.47
2018-03-11T20:01:11.404Z,2.70
2018-03-11T20:03:41.490Z,3.47
2018-03-11T20:06:18.924Z,6.40
2018-03-11T20:08:49.019Z,3.17
2018-03-11T20:11:18.594Z,3.20
2018-03-11T20:13:48.267Z,2.87
2018-03-11T20:16:17.996Z,2.93
2018-03-11T20:18:47.605Z,2.60
2018-03-11T20:21:17.639Z,3.63
2018-03-11T20:23:53.506Z,2.30
2018-03-11T20:26:23.371Z,2.30
2018-03-11T20:28:53.274Z,1.90
2018-03-11T20:31:23.160Z,1.90
2018-03-11T20:33:52.752Z,2.70
2018-03-11T20:36:36.179Z,1.90
2018-03-11T20:39:05.878Z,1.67
2018-03-11T20:41:35.411Z,1.77
2018-03-11T20:44:05.279Z,1.83
2018-03-11T20:46:40.246Z,2.20
2018-03-11T20:49:09.793Z,1.90
2018-03-11T20:51:45.823Z,1.90
2018-03-11T20:54:15.411Z,2.13
2018-03-11T20:56:45.377Z,1.93
2018-03-11T20:59:15.012Z,2.13
2018-03-11T21:01:44.616Z,1.73
2018-03-11T21:04:14.189Z,1.80
2018-03-11T21:06:56.664Z,2.67
2018-03-11T21:09:27.898Z,1.50
2018-03-11T21:12:03.527Z,1.53
2018-03-11T21:14:33.804Z,1.70
2018-03-11T21:17:14.043Z,1.40
2018-03-11T21:19:59.647Z,2.13
2018-03-11T21:22:29.356Z,1.40
2018-03-11T21:24:59.210Z,2.77
2018-03-11T21:27:30.760Z,2.20
2018-03-11T21:30:00.379Z,3.47
2018-03-11T21:32:29.943Z,3.33
2018-03-11T21:34:59.880Z,1.73
2018-03-11T21:37:29.441Z,1.70
2018-03-11T21:40:06.232Z,1.97
2018-03-11T21:42:36.725Z,2.50
2018-03-11T21:45:06.396Z,1.70
2018-03-11T21:47:36.585Z,1.77
2018-03-11T21:50:06.581Z,1.77
2018-03-11T21:52:36.366Z,1.50
2018-03-11T21:55:08.548Z,1.97
2018-03-11T21:57:38.313Z,2.00
2018-03-11T22:00:09.582Z,2.30
2018-03-11T22:02:39.341Z,1.70
2018-03-11T22:05:09.362Z,2.00
2018-03-11T22:07:39.311Z,1.93
2018-03-11T22:10:09.336Z,1.90
2018-03-11T22:12:39.043Z,1.70
2018-03-11T22:15:08.971Z,1.77
2018-03-11T22:17:48.590Z,1.50
2018-03-11T22:20:18.492Z,1.50
2018-03-11T22:22:48.239Z,1.80
2018-03-11T22:25:21.726Z,1.23
2018-03-11T22:27:57.643Z,1.60
2018-03-11T22:30:27.206Z,1.80
2018-03-11T22:32:57.370Z,1.20
2018-03-11T22:35:34.473Z,1.40
2018-03-11T22:38:04.076Z,1.83
2018-03-11T22:40:35.197Z,1.70
2018-03-11T22:43:04.832Z,2.27
2018-03-11T22:45:36.089Z,3.07
2018-03-11T22:48:05.652Z,2.13
2018-03-11T22:50:35.214Z,2.27
2018-03-11T22:53:05.432Z,1.77
2018-03-11T22:55:35.533Z,1.40
2018-03-11T22:58:17.337Z,1.30
2018-03-11T23:00:46.908Z,1.30
2018-03-11T23:03:16.892Z,1.40
2018-03-11T23:05:46.554Z,1.80
2018-03-11T23:08:18.078Z,1.40
2018-03-11T23:10:53.784Z,1.70
2018-03-11T23:13:23.378Z,2.57
2018-03-11T23:15:52.999Z,1.63
2018-03-11T23:18:22.846Z,1.20
2018-03-11T23:20:52.408Z,2.20
2018-03-11T23:23:22.101Z,2.13
2018-03-11T23:25:51.660Z,2.50
2018-03-11T23:28:21.187Z,1.60
2018-03-11T23:30:52.676Z,1.63
2018-03-11T23:33:22.286Z,1.80
2018-03-11T23:35:51.889Z,2.13
2018-03-11T23:38:21.608Z,1.47
2018-03-11T23:40:57.512Z,3.87
2018-03-11T23:43:27.220Z,2.10
2018-03-11T23:45:56.905Z,1.80
2018-03-11T23:48:35.134Z,1.67
2018-03-11T23:51:12.580Z,2.10
2018-03-11T23:53:42.152Z,1.60
2018-03-11T23:56:24.089Z,2.77
2018-03-11T23:58:53.662Z,1.40
